Weather observations for the past three days for
Sacramento Executive Airport
Imperial (Metric)
Date Time (pdt) Wind (mph) Vis. (mi.) Weather Sky Cond. Temperature (ºF) Relative Humidity Wind Chill (°F) Heat Index (°F) Pressure Precipitation (in)
Air Dwpt 6 hour altimeter (in) sea level (mb) 1 hr 3 hr 6 hr
Max. Min.
02 14:53 SW 6 10.00 Fair CLR 69.1 53.1 57% 29.87 1011.3
02 13:53 S 14 G 22 10.00 Fair CLR 66.9 53.1 61% 29.88 1011.9
02 12:53 S 10 G 18 10.00 Fair CLR 63 52 68% 29.9 1012.4
02 11:53 S 12 G 21 10.00 Fair CLR 64 53.1 68% 29.9 1012.6
02 10:53 SW 8 10.00 Fair CLR 59 52 59 53.1 78% 29.91 1012.7
02 09:53 SW 12 10.00 Partly Cloudy SCT013 57.9 52 81% 29.9 1012.5
02 08:53 SW 8 G 21 10.00 A Few Clouds FEW015 57.9 51.1 78% 29.89 1012.2
02 07:53 S 7 10.00 Fair CLR 55.9 51.1 84% 29.88 1011.9
02 06:53 SW 7 G 22 10.00 Fair CLR 54 50 87% 29.87 1011.3
02 05:53 S 7 10.00 Fair CLR 53.1 50 89% 29.86 1011.0
02 04:53 S 6 10.00 Fair CLR 53.1 50 59 53.1 89% 29.85 1010.8
02 03:53 S 7 10.00 Fair CLR 53.1 50 89% 29.85 1010.9
02 02:53 S 6 10.00 Fair CLR 55 48.9 80% 29.86 1011.0
02 01:53 S 5 10.00 Fair CLR 55 50 83% 29.87 1011.3
02 00:53 Vrbl 5 10.00 Fair CLR 55.9 51.1 84% 29.87 1011.5
01 23:53 S 7 10.00 Fair CLR 57.9 52 81% 29.87 1011.4
01 22:53 S 6 10.00 Fair CLR 59 52 80.1 59 78% 29.87 1011.3
01 21:53 S 7 10.00 Fair CLR 62.1 54 75% 29.86 1011.2
01 20:53 S 9 10.00 Fair CLR 64.9 55.9 73% 29.85 1010.7
01 19:53 S 6 10.00 Fair CLR 70 57 64% 29.83 1010.0
01 18:53 S 7 10.00 Fair CLR 73.9 55.9 54% 29.83 1009.9
01 17:53 SW 8 10.00 Fair CLR 78.1 57.9 50% 79 29.83 1010.1
01 16:53 S 7 10.00 Fair CLR 80.1 55 82 70 42% 80 29.84 1010.3
01 15:53 SW 7 10.00 Fair CLR 80.1 55.9 44% 80 29.85 1010.9
01 14:53 Vrbl 6 10.00 Fair CLR 80.1 55.9 44% 80 29.88 1011.9
01 13:53 Vrbl 5 10.00 Fair CLR 79 55.9 45% 80 29.9 1012.3
01 12:53 S 6 10.00 Fair CLR 75 55 50% 78 29.92 1013.0
01 11:53 S 8 10.00 Fair CLR 72 55 55% 29.94 1013.7
01 10:53 SW 7 10.00 Fair CLR 70 55 70 54 59% 29.95 1014.0
01 09:53 S 7 10.00 Fair CLR 66 54 65% 29.94 1013.9
01 08:53 S 5 10.00 Fair CLR 61 53.1 75% 29.94 1013.9
01 07:53 SW 7 10.00 Fair CLR 57 52 83% 29.93 1013.6
01 06:53 S 5 10.00 Fair CLR 55 51.1 87% 29.91 1012.9
01 05:53 S 6 10.00 Fair CLR 54 51.1 90% 29.9 1012.4
01 04:53 SE 5 10.00 Fair CLR 54 50 60.1 54 87% 29.89 1012.1
01 03:53 SE 3 10.00 Fair CLR 55.9 50 81% 29.89 1012.0
01 02:53 SE 3 10.00 Fair CLR 55.9 50 81% 29.88 1011.9
01 01:53 S 6 10.00 Fair CLR 57 51.1 81% 29.89 1012.1
01 00:53 Vrbl 6 10.00 Fair CLR 57 51.1 81% 29.9 1012.3
30 23:53 S 5 10.00 Fair CLR 57.9 51.1 78% 29.89 1012.0
30 22:53 S 5 10.00 Fair CLR 60.1 50 82 60.1 70% 29.89 1012.0
30 21:53 SW 5 10.00 Fair CLR 62.1 50 65% 29.88 1011.6
30 20:53 SW 6 10.00 Fair CLR 64 52 65% 29.86 1011.2
30 19:53 SW 9 10.00 Fair CLR 69.1 54 59% 29.84 1010.5
30 18:53 SW 9 10.00 Fair CLR 75.9 57 52% 78 29.84 1010.3
30 17:53 S 8 10.00 Fair CLR 80.1 55.9 44% 80 29.84 1010.3
30 16:53 S 8 10.00 Fair CLR 82 55 84.9 69.1 40% 81 29.84 1010.5
30 15:53 SW 8 10.00 Fair CLR 84 53.1 34% 83 29.85 1010.9
30 14:53 NW 9 10.00 Fair CLR 84 51.1 32% 82 29.88 1011.7
30 13:53 SW 7 10.00 Fair CLR 79 51.1 38% 79 29.89 1012.2
30 12:53 Vrbl 6 10.00 Fair CLR 77 50 39% 78 29.91 1012.8
30 11:53 S 5 10.00 Fair CLR 73.9 52 46% 29.93 1013.5
30 10:53 Vrbl 3 10.00 Fair CLR 70 51.1 70 52 51% 29.95 1014.0
30 09:53 Vrbl 3 10.00 Fair CLR 64 51.1 63% 29.95 1014.3
30 08:53 Vrbl 5 10.00 Fair CLR 60.1 50 70% 29.95 1014.2
30 07:53 SE 5 10.00 Fair CLR 55 48.9 80% 29.95 1014.3
30 06:53 Calm 10.00 Fair CLR 52 48.9 89% 29.94 1013.9
30 05:53 SW 3 10.00 Fair CLR 52 48.9 89% 29.94 1013.8
30 04:53 S 3 10.00 Fair CLR 53.1 48 57.9 53.1 83% 29.94 1013.7
30 03:53 S 3 10.00 Fair CLR 54 46.9 77% 29.94 1013.8
30 02:53 SE 3 10.00 Fair CLR 55 46.9 74% 29.95 1014.0
30 01:53 Calm 10.00 Fair CLR 55 46.9 74% 29.97 1014.7
30 00:53 S 6 10.00 Fair CLR 55.9 46.9 72% 29.97 1015.0
29 23:53 Calm 10.00 Fair CLR 55.9 46.9 72% 29.97 1014.7
29 22:53 SW 6 10.00 Fair CLR 57.9 45 82 57.9 62% 29.96 1014.5
29 21:53 SW 6 10.00 Fair CLR 60.1 46 60% 29.96 1014.5
29 20:53 SW 6 10.00 Fair CLR 63 46 54% 29.94 1013.9
29 19:53 SW 12 10.00 Fair CLR 66.9 46.9 49% 29.93 1013.4
29 18:53 SW 10 G 20 10.00 Fair CLR 73.9 54 50% 29.93 1013.4
29 17:53 W 7 10.00 Fair CLR 81 44.1 27% 80 29.93 1013.5
29 16:53 Vrbl 3 10.00 Fair CLR 81 45 81 69.1 28% 80 29.94 1013.8
29 15:53 Calm 10.00 Fair CLR 80.1 46 30% 79 29.97 1014.7
Date Time (pdt) Wind (mph) Vis. (mi.) Weather Sky Cond. Air Dwpt Max. Min. Relative Humidity Wind Chill (°F) Heat Index (°F) altimeter (in) sea level (mb) 1 hr 3 hr 6 hr
6 hour
Temperature (ºF) Pressure Precipitation (in)